Tiempo atmosférico en la estación meteorológica de Bustillo del Páramo, León (850 m.)



Fecha
DESCASC
Temp. máxima en grados centígrados (hora)
DESCASC
Temp. mínima en grados centígrados (hora)
DESCASC
Temp. media en grados centígrados
DESCASC
Racha de viento máxima en m/sg (hora)
DESCASC
Velocidad máxima media en intervalos de 10 minutos(hora)
DESCASC
Precipitaciones diarias en mm
DESCASC
Precipitaciones de 00:00 a 06:00 en mm
DESCASC
Precipitaciones de 06:00 a 12:00 en mm
DESCASC
Precipitaciones de 12:00 a 18:00 en mm
DESCASC
Precipitaciones de 18:00 a 24:00 en mm
DESCASC
20-06-2018 -- (--) -- (--) -- 9.44 (21:10) 6.67 (21:10) 0 0 0 0 0
19-06-2018 -- (--) -- (--) -- 8.89 (17:10) 3.33 (08:30) 0 0 0 0 0
18-06-2018 -- (--) -- (--) -- 7.78 (00:10) 4.17 (23:30) 0 0 0 0 0
17-06-2018 -- (--) -- (--) -- 7.22 (20:00) 4.44 (20:00) 0 0 0 0 0
16-06-2018 -- (--) -- (--) -- 5.28 (21:00) 3.61 (23:00) 0 0 0 0 0
15-06-2018 -- (--) -- (--) -- 9.44 (22:00) 5.83 (22:00) 0 0 0 0 0
14-06-2018 -- (--) -- (--) -- 5.83 (15:10) 3.33 (15:20) 0 0 0 0 0
13-06-2018 -- (--) -- (--) -- 6.67 (12:50) 4.17 (00:20) 0 0 0 0 0
12-06-2018 -- (--) -- (--) -- 11.39 (19:00) 7.5 (08:50) 0 0 0 0 0
11-06-2018 -- (--) -- (--) -- 9.44 (20:30) 6.39 (17:10) 0.2 0 0 0.2 0
10-06-2018 -- (--) -- (--) -- 6.94 (15:40) 4.72 (15:40) 14.8 0 0.4 3 11.4
09-06-2018 -- (--) -- (--) -- 10.28 (18:40) 7.5 (18:40) 0.2 0 0 0 0.2
08-06-2018 -- (--) -- (--) -- 14.17 (18:20) 8.89 (18:30) 7 2 2.2 2.4 0.4
07-06-2018 -- (--) -- (--) -- 8.61 (16:50) 6.11 (17:10) 5.4 0 0 0.6 4.8
06-06-2018 -- (--) -- (--) -- 8.61 (19:20) 6.39 (19:20) 0 0 0 0 0
05-06-2018 -- (--) -- (--) -- 9.72 (11:40) 5.28 (16:30) 14.6 0 2.6 11.8 0.2
04-06-2018 -- (--) -- (--) -- 8.33 (19:00) 5.83 (15:20) 4.4 0 0.2 4 0.2
03-06-2018 -- (--) -- (--) -- 12.5 (16:40) 8.61 (15:50) 0 0 0 0 0
02-06-2018 -- (--) -- (--) -- 8.06 (17:20) 5.83 (21:30) 0 0 0 0 0
01-06-2018 -- (--) -- (--) -- 10.83 (16:40) 7.78 (20:10) 1.6 0 1.4 0.2 0
31-05-2018 -- (--) -- (--) -- 7.22 (00:10) 5 (00:10) 0 0 0 0 0
30-05-2018 -- (--) -- (--) -- 14.72 (20:40) 9.17 (21:20) 0.8 0 0 0.6 0.2
29-05-2018 -- (--) -- (--) -- 7.78 (19:40) 5.83 (19:40) 2 1 0.8 0 0.2
28-05-2018 -- (--) -- (--) -- 6.11 (17:20) 4.44 (17:20) 44.4 13 0 0.4 31
27-05-2018 -- (--) -- (--) -- 10.28 (15:20) 8.06 (15:10) 1.4 0 0 1.4 0
26-05-2018 -- (--) -- (--) -- 8.33 (15:40) 5.83 (15:50) 2.2 0 0 2.2 0
25-05-2018 -- (--) -- (--) -- 15.83 (01:20) 11.67 (01:20) 18.8 4.6 9.8 4.4 0
24-05-2018 -- (--) -- (--) -- 9.72 (20:40) 6.39 (21:10) 8.4 0 0 0 8.4
23-05-2018 -- (--) -- (--) -- 10.28 (17:10) 7.78 (17:10) 2.4 0 0 2.2 0.2
22-05-2018 -- (--) -- (--) -- 8.61 (17:30) 6.11 (19:00) 0 0 0 0 0

Gráficas

Temp. máximas Temp. mínimas Temp. medias Precipitaciones Rachas de viento máximas Velocidades máximas media en intervalos de 10 minutos

Datos horarios

Fecha y hora oficial Temperatura (ºC) Velocidad del viento (km/h) Dirección del viento Racha (km/h) Dirección de racha Precipitación (mm) Presión (hPa) Tendencia (hPa) Humedad (%)
2018-06-20 23:00:00 21.2 10 Nordeste 18 Norte 0 -- -- 60
2018-06-20 22:00:00 23.2 12 Norte 34 Noroeste 0 -- -- 57
2018-06-20 21:00:00 25.4 22 Noroeste 33 Noroeste 0 -- -- 47
2018-06-20 20:00:00 27.6 15 Oeste 27 Oeste 0 -- -- 42
2018-06-20 19:00:00 27.7 22 Sudoeste 30 Sudoeste 0 -- -- 40
2018-06-20 18:00:00 29.7 8 Sudoeste 16 Sudoeste 0 -- -- 42
2018-06-20 17:00:00 29.9 5 Sudeste 15 Sur 0 -- -- 38
2018-06-20 16:00:00 29.3 6 Este 13 Sur 0 -- -- 39
2018-06-20 15:00:00 28.1 4 Este 15 Sudoeste 0 -- -- 41
2018-06-20 14:00:00 27.5 5 Este 14 Este 0 -- -- 46
2018-06-20 13:00:00 26.4 4 Este 13 Este 0 -- -- 46
2018-06-20 12:00:00 25.1 4 Norte 8 Nordeste 0 -- -- 50
2018-06-20 11:00:00 23.7 3 Nordeste 7 Nordeste 0 -- -- 53
2018-06-20 10:00:00 22.1 2 Nordeste 7 Noroeste 0 -- -- 58
2018-06-20 09:00:00 18.9 6 Norte 10 Noroeste 0 -- -- 66
2018-06-20 08:00:00 15.4 6 Noroeste 10 Noroeste 0 -- -- 77
2018-06-20 07:00:00 13.3 7 Norte 12 Norte 0 -- -- 82
2018-06-20 06:00:00 13.4 8 Noroeste 15 Noroeste 0 -- -- 81
2018-06-20 05:00:00 13.8 10 Noroeste 14 Noroeste 0 -- -- 80
2018-06-20 04:00:00 14.4 8 Noroeste 13 Norte 0 -- -- 78
2018-06-20 03:00:00 14.8 9 Norte 14 Noroeste 0 -- -- 77
2018-06-20 02:00:00 15.6 7 Noroeste 11 Noroeste 0 -- -- 76
2018-06-20 01:00:00 17.2 5 Norte 12 Nordeste 0 -- -- 71
2018-06-20 00:00:00 18.8 6 Nordeste 11 Norte 0 -- -- 63
2018-06-19 23:00:00 20.8 6 Nordeste 10 Nordeste 0 -- -- 58
2018-06-19 22:00:00 23.3 7 Nordeste 10 Nordeste 0 -- -- 51
2018-06-19 21:00:00 25.6 7 Nordeste 11 Este 0 -- -- 38
2018-06-19 20:00:00 27.1 3 Sudeste 15 Sudeste 0 -- -- 30
2018-06-19 19:00:00 27.1 5 Este 16 Este 0 -- -- 32
2018-06-19 18:00:00 26.8 9 Este 32 Este 0 -- -- 34
2018-06-19 17:00:00 26.5 9 Este 21 Este 0 -- -- 37
2018-06-19 16:00:00 25.5 6 Sudeste 19 Sudeste 0 -- -- 41
2018-06-19 15:00:00 24 8 Este 19 Este 0 -- -- 45
2018-06-19 14:00:00 23.1 8 Sudeste 21 Sudeste 0 -- -- 49
2018-06-19 13:00:00 21.5 7 Este 19 Este 0 -- -- 55
2018-06-19 12:00:00 19.5 4 Sudeste 10 Este 0 -- -- 63
2018-06-19 11:00:00 17.7 2 Sudoeste 10 Este 0 -- -- 71
2018-06-19 10:00:00 16.3 4 Nordeste 13 Este 0 -- -- 76
2018-06-19 09:00:00 14.7 9 Este 19 Este -- -- -- 81
2018-06-19 08:00:00 14 10 Este 15 Este 0 -- -- 83
2018-06-19 07:00:00 11.9 6 Este 9 Este 0 -- -- 91
2018-06-19 06:00:00 12.9 2 Norte 5 Norte 0 -- -- 90
2018-06-19 05:00:00 13.6 0 Calma 4 Sur 0 -- -- 89
2018-06-19 04:00:00 13.7 0 Calma 3 Sur 0 -- -- 87
2018-06-19 03:00:00 14.2 4 Este 10 Sudeste 0 -- -- 86
2018-06-19 02:00:00 15.2 4 Sudeste 9 Este 0 -- -- 83
2018-06-19 01:00:00 16 5 Este 17 Este 0 -- -- 79
2018-06-19 00:00:00 17.5 11 Este 26 Este 0 -- -- 74
2018-06-18 23:00:00 19.5 10 Este 19 Nordeste 0 -- -- 67
2018-06-18 22:00:00 22.1 12 Nordeste 24 Nordeste 0 -- -- 58
2018-06-18 21:00:00 25.7 11 Nordeste 23 Nordeste 0 -- -- 48
2018-06-18 20:00:00 27.9 8 Nordeste 14 Este 0 -- -- 40
2018-06-18 19:00:00 28.1 4 Sur 12 Sur 0 -- -- 39
2018-06-18 18:00:00 28 4 Sudeste 14 Sudeste 0 -- -- 37
2018-06-18 17:00:00 27.7 5 Sudoeste 13 Sur 0 -- -- 38
2018-06-18 16:00:00 27.3 8 Sur 15 Este 0 -- -- 38
2018-06-18 15:00:00 26.3 6 Sudeste 16 Sudeste 0 -- -- 38
2018-06-18 14:00:00 25 5 Sudoeste 13 Este 0 -- -- 46
2018-06-18 13:00:00 23.6 3 Sur 10 Sudeste 0 -- -- 48
2018-06-18 12:00:00 21.4 3 Sur 8 Norte 0 -- -- 47
2018-06-18 11:00:00 19.6 4 Norte 9 Sudoeste 0 -- -- 50
2018-06-18 10:00:00 18 3 Oeste 8 Oeste 0 -- -- 55
2018-06-18 09:00:00 16.4 4 Noroeste 13 Noroeste 0 -- -- 62
2018-06-18 08:00:00 13 6 Norte 10 Norte 0 -- -- 80
2018-06-18 07:00:00 11.4 6 Norte 10 Norte 0 -- -- 84
2018-06-18 06:00:00 12.1 5 Norte 9 Norte 0 -- -- 82
2018-06-18 05:00:00 12.7 5 Norte 10 Norte 0 -- -- 83
2018-06-18 04:00:00 13.3 5 Noroeste 13 Noroeste 0 -- -- 83
2018-06-18 03:00:00 14.5 8 Noroeste 13 Noroeste 0 -- -- 81
2018-06-18 02:00:00 15.5 6 Nordeste 12 Norte 0 -- -- 76
2018-06-18 01:00:00 17.1 5 Nordeste 28 Nordeste 0 -- -- 70
2018-06-18 00:00:00 17.1 12 Este 22 Este 0 -- -- 69
2018-06-17 23:00:00 18.9 10 Nordeste 20 Nordeste 0 -- -- 60
2018-06-17 22:00:00 21.7 9 Nordeste 19 Nordeste 0 -- -- 50
2018-06-17 21:00:00 24.7 10 Nordeste 21 Nordeste 0 -- -- 42
2018-06-17 20:00:00 26.5 16 Nordeste 26 Norte 0 -- -- 33
2018-06-17 19:00:00 26.7 5 Este 13 Sur 0 -- -- 32
2018-06-17 18:00:00 26.4 10 Sur 15 Sur 0 -- -- 36
2018-06-17 17:00:00 26.2 3 Oeste 17 Sudeste 0 -- -- 39
2018-06-17 16:00:00 25.4 7 Sudeste 17 Sudeste 0 -- -- 35
2018-06-17 15:00:00 24.4 6 Sudeste 16 Sur 0 -- -- 38
2018-06-17 14:00:00 23.3 7 Sur 18 Este 0 -- -- 44
2018-06-17 13:00:00 21.9 6 Sudeste 10 Sur 0 -- -- 47
2018-06-17 12:00:00 19.7 3 Norte 10 Sur 0 -- -- 59
2018-06-17 11:00:00 17.6 4 Sudoeste 10 Sudoeste 0 -- -- 72
2018-06-17 10:00:00 15.8 3 Noroeste 8 Oeste 0 -- -- 75
2018-06-17 09:00:00 14 5 Sudoeste 8 Sudoeste 0 -- -- 83
2018-06-17 08:00:00 12.6 3 Oeste 8 Noroeste 0 -- -- 88
2018-06-17 07:00:00 11.5 3 Oeste 6 Oeste 0 -- -- 91
2018-06-17 06:00:00 12.2 0 Calma 2 Sudeste 0 -- -- 90
2018-06-17 05:00:00 12.5 0 Calma 4 Nordeste 0 -- -- 89
2018-06-17 04:00:00 13.2 4 Nordeste 5 Nordeste 0 -- -- 87
2018-06-17 03:00:00 13.6 0 Calma 4 Sur 0 -- -- 87
2018-06-17 02:00:00 14.4 3 Este 10 Norte 0 -- -- 79
2018-06-17 01:00:00 15.1 3 Nordeste 10 Norte 0 -- -- 78
2018-06-17 00:00:00 16.5 10 Norte 17 Nordeste 0 -- -- 71
2018-06-16 23:00:00 18.3 13 Nordeste 19 Nordeste 0 -- -- 63
2018-06-16 22:00:00 21 9 Nordeste 18 Norte 0 -- -- 56
2018-06-16 21:00:00 25.1 13 Noroeste 19 Noroeste 0 -- -- 43
2018-06-16 20:00:00 25.8 10 Sudoeste 16 Sudoeste 0 -- -- 39
2018-06-16 19:00:00 26.4 8 Sur 13 Sur 0 -- -- 40
2018-06-16 18:00:00 26.3 4 Este 17 Sur 0 -- -- 33
2018-06-16 17:00:00 25.9 5 Sudeste 19 Sudeste 0 -- -- 33
2018-06-16 16:00:00 25.1 8 Sudeste 14 Sur 0 -- -- 35
2018-06-16 15:00:00 23.9 7 Sudeste 15 Sudeste 0 -- -- 44
2018-06-16 14:00:00 22.6 5 Sudeste 13 Sudoeste 0 -- -- 49
2018-06-16 13:00:00 20.7 5 Sudoeste 12 Sudoeste 0 -- -- 58
2018-06-16 12:00:00 19 5 Sur 13 Sudoeste 0 -- -- 67
2018-06-16 11:00:00 17.3 8 Sudoeste 13 Sudoeste 0 -- -- 73
2018-06-16 10:00:00 15.4 6 Oeste 12 Noroeste 0 -- -- 78
2018-06-16 09:00:00 13.4 6 Noroeste 10 Noroeste 0 -- -- 89
2018-06-16 08:00:00 12.4 4 Noroeste 9 Noroeste 0 -- -- 93
2018-06-16 07:00:00 11.3 5 Noroeste 8 Noroeste 0 -- -- 94
2018-06-16 06:00:00 11.9 2 Noroeste 8 Norte 0 -- -- 93
2018-06-16 05:00:00 12.5 3 Norte 4 Noroeste 0 -- -- 92
2018-06-16 04:00:00 12.9 0 Calma 5 Sudeste 0 -- -- 90
2018-06-16 03:00:00 13.2 5 Sudeste 6 Sudeste 0 -- -- 88
2018-06-16 02:00:00 13.9 0 Calma 8 Este 0 -- -- 86
2018-06-16 01:00:00 14.7 7 Este 9 Este 0 -- -- 84
2018-06-16 00:00:00 15.8 5 Este 13 Este 0 -- -- 82
2018-06-15 23:00:00 17.5 12 Este 31 Este 0 -- -- 74
2018-06-15 22:00:00 20.5 21 Este 34 Este 0 -- -- 65
2018-06-15 21:00:00 23 4 Este 10 Este 0 -- -- 58
2018-06-15 20:00:00 24.9 6 Sudeste 15 Sudeste 0 -- -- 41
2018-06-15 19:00:00 25.3 5 Sudeste 14 Sudeste 0 -- -- 40
2018-06-15 18:00:00 25.2 7 Sur 14 Sur 0 -- -- 41
2018-06-15 17:00:00 24.5 4 Sudeste 16 Sur 0 -- -- 49
2018-06-15 16:00:00 23.9 6 Sur 15 Sur 0 -- -- 45
2018-06-15 15:00:00 22.7 5 Sur 15 Sur 0 -- -- 49
2018-06-15 14:00:00 21.6 6 Sudoeste 15 Sudoeste 0 -- -- 51
2018-06-15 13:00:00 20.4 8 Sudoeste 16 Sudoeste 0 -- -- 59
2018-06-15 12:00:00 19 8 Sur 13 Sudoeste 0 -- -- 57
2018-06-15 11:00:00 17.6 6 Sudoeste 11 Sudoeste 0 -- -- 61
2018-06-15 10:00:00 16.2 5 Sudoeste 10 Sudoeste 0 -- -- 66
2018-06-15 09:00:00 14.9 3 Oeste 10 Noroeste 0 -- -- 70
2018-06-15 08:00:00 12.2 6 Noroeste 12 Noroeste 0 -- -- 85
2018-06-15 07:00:00 10.8 9 Noroeste 12 Noroeste 0 -- -- 90
2018-06-15 06:00:00 11.3 8 Noroeste 10 Noroeste 0 -- -- 88
2018-06-15 05:00:00 11.9 5 Noroeste 14 Noroeste 0 -- -- 87
2018-06-15 04:00:00 12.7 10 Noroeste 13 Noroeste 0 -- -- 84
2018-06-15 03:00:00 13.7 5 Norte 6 Norte 0 -- -- 81
2018-06-15 02:00:00 14.2 2 Norte 12 Este 0 -- -- 82
2018-06-15 01:00:00 15.5 10 Nordeste 11 Nordeste 0 -- -- 73
2018-06-15 00:00:00 16.2 10 Este 13 Este 0 -- -- 74
2018-06-14 23:00:00 18.4 7 Este 13 Este 0 -- -- 68
2018-06-14 22:00:00 21.3 6 Sur 12 Sur 0 -- -- 59
2018-06-14 21:00:00 23.4 8 Sur 16 Sur 0 -- -- 52
2018-06-14 20:00:00 24.6 10 Sur 16 Sur 0 -- -- 43
2018-06-14 19:00:00 25 7 Sur 13 Sur 0 -- -- 41
2018-06-14 18:00:00 24.8 7 Sur 14 Sur 0 -- -- 44
2018-06-14 17:00:00 24.1 9 Sur 17 Sur 0 -- -- 45
2018-06-14 16:00:00 23.1 10 Sudeste 21 Sur 0 -- -- 44
2018-06-14 15:00:00 21.5 10 Sudeste 18 Sur 0 -- -- 52
2018-06-14 14:00:00 19.5 9 Sur 17 Sudeste 0 -- -- 61
2018-06-14 13:00:00 17.9 9 Sur 15 Sudoeste 0 -- -- 65
2018-06-14 12:00:00 15.9 7 Sur 14 Sudoeste 0 -- -- 70
2018-06-14 11:00:00 14.1 8 Sudoeste 14 Sudoeste 0 -- -- 77
2018-06-14 10:00:00 12.2 8 Sudoeste 13 Sudoeste 0 -- -- 83
2018-06-14 09:00:00 11.2 4 Sudoeste 8 Sudoeste 0 -- -- 85
2018-06-14 08:00:00 9.9 0 Calma 4 Norte 0 -- -- 92
2018-06-14 07:00:00 8.6 2 Noroeste 4 Noroeste 0 -- -- 93
2018-06-14 06:00:00 9 2 Norte 4 Norte 0 -- -- 93
2018-06-14 05:00:00 9.6 0 Calma 2 Oeste 0 -- -- 93
2018-06-14 04:00:00 10.1 0 Calma 6 Sudoeste 0 -- -- 93
2018-06-14 03:00:00 9.9 5 Sudoeste 8 Sudoeste 0 -- -- 92
2018-06-14 02:00:00 11.3 2 Nordeste 9 Nordeste 0 -- -- 87
2018-06-14 01:00:00 11.6 8 Nordeste 13 Este 0 -- -- 86
2018-06-14 00:00:00 12.7 10 Este 18 Este 0 -- -- 80
2018-06-13 23:00:00 13.9 11 Este 18 Nordeste 0 -- -- 74
2018-06-13 22:00:00 16.4 7 Nordeste 13 Nordeste 0 -- -- 65
2018-06-13 21:00:00 19.2 7 Nordeste 22 Nordeste 0 -- -- 56
2018-06-13 20:00:00 20.1 11 Nordeste 19 Este 0 -- -- 46
2018-06-13 19:00:00 20.9 9 Este 16 Sudeste 0 -- -- 45
2018-06-13 18:00:00 21.1 8 Nordeste 15 Sudeste 0 -- -- 41
2018-06-13 17:00:00 21 5 Sudoeste 18 Sur 0 -- -- 47
2018-06-13 16:00:00 20.4 4 Sudoeste 16 Oeste 0 -- -- 47
2018-06-13 15:00:00 19.4 6 Sudeste 15 Oeste 0 -- -- 46
2018-06-13 14:00:00 18.5 3 Sur 17 Oeste 0 -- -- 48
2018-06-13 13:00:00 17.8 8 Norte 24 Norte 0 -- -- 47
2018-06-13 12:00:00 16.5 11 Noroeste 19 Norte 0 -- -- 51
2018-06-13 11:00:00 15.3 4 Norte 13 Norte 0 -- -- 55
2018-06-13 10:00:00 13.8 9 Norte 15 Noroeste 0 -- -- 65
2018-06-13 09:00:00 11.9 11 Norte 16 Norte 0 -- -- 73
2018-06-13 08:00:00 9.4 8 Norte 12 Norte 0 -- -- 87
2018-06-13 07:00:00 7.5 8 Norte 10 Norte 0 -- -- 91
2018-06-13 06:00:00 8 6 Norte 11 Norte 0 -- -- 89
2018-06-13 05:00:00 8.8 8 Norte 12 Norte 0 -- -- 88
2018-06-13 04:00:00 9 5 Norte 9 Norte 0 -- -- 89
2018-06-13 03:00:00 9.8 3 Noroeste 14 Noroeste 0 -- -- 86
2018-06-13 02:00:00 10.8 12 Norte 15 Norte 0 -- -- 81
2018-06-13 01:00:00 11.3 10 Norte 20 Norte 0 -- -- 79
2018-06-13 00:00:00 12.1 14 Norte 21 Norte 0 -- -- 76
2018-06-12 23:00:00 12.8 13 Norte 26 Norte 0 -- -- 74
2018-06-12 22:00:00 14.5 18 Norte 39 Norte 0 -- -- 66
2018-06-12 21:00:00 16.3 27 Norte 39 Nordeste 0 -- -- 61
2018-06-12 20:00:00 18.3 22 Nordeste 37 Nordeste 0 -- -- 54
2018-06-12 19:00:00 19.4 25 Nordeste 41 Nordeste 0 -- -- 51
2018-06-12 18:00:00 21.4 12 Norte 21 Noroeste 0 -- -- 45
2018-06-12 17:00:00 21.3 13 Noroeste 28 Noroeste 0 -- -- 48
2018-06-12 16:00:00 20.5 12 Norte 27 Norte 0 -- -- 51
2018-06-12 15:00:00 20.3 14 Norte 29 Norte 0 -- -- 51
2018-06-12 14:00:00 19.9 12 Noroeste 30 Norte 0 -- -- 50
2018-06-12 13:00:00 19.7 19 Norte 31 Norte 0 -- -- 52
2018-06-12 12:00:00 19.2 19 Noroeste 29 Norte 0 -- -- 57
2018-06-12 11:00:00 18.4 18 Noroeste 33 Noroeste 0 -- -- 63
2018-06-12 10:00:00 16.2 23 Noroeste 33 Noroeste 0 -- -- 71
2018-06-12 09:00:00 14.7 27 Noroeste 36 Noroeste 0 -- -- 79
2018-06-12 08:00:00 12.8 23 Noroeste 33 Noroeste 0 -- -- 87
2018-06-12 07:00:00 11.8 20 Noroeste 31 Oeste 0 -- -- 91
2018-06-12 06:00:00 11.8 21 Oeste 27 Oeste 0 -- -- 91
2018-06-12 05:00:00 12 18 Noroeste 28 Oeste 0 -- -- 90
2018-06-12 04:00:00 12.1 16 Noroeste 23 Noroeste 0 -- -- 89
2018-06-12 03:00:00 12.4 15 Noroeste 24 Oeste 0 -- -- 87
2018-06-12 02:00:00 12.1 10 Noroeste 18 Noroeste 0 -- -- 88
2018-06-12 01:00:00 12.1 7 Sudoeste 21 Noroeste 0 -- -- 85
2018-06-12 00:00:00 13 11 Noroeste 18 Noroeste 0 -- -- 83
2018-06-11 23:00:00 14.4 10 Noroeste 20 Noroeste 0 -- -- 79
2018-06-11 22:00:00 15.1 8 Norte 30 Norte 0 -- -- 73
2018-06-11 21:00:00 16 19 Noroeste 34 Noroeste 0 -- -- 70
2018-06-11 20:00:00 18.2 19 Oeste 26 Noroeste 0 -- -- 61
2018-06-11 19:00:00 19.2 15 Noroeste 32 Oeste 0 -- -- 57
2018-06-11 18:00:00 19.5 14 Noroeste 31 Norte 0.2 -- -- 51
2018-06-11 17:00:00 18.6 19 Norte 28 Norte 0 -- -- 59
2018-06-11 16:00:00 16.9 7 Este 17 Nordeste 0 -- -- 61
2018-06-11 15:00:00 15.3 14 Norte 32 Norte 0 -- -- 77
2018-06-11 14:00:00 18 15 Noroeste 32 Oeste 0 -- -- 60
2018-06-11 13:00:00 17.3 8 Oeste 21 Oeste 0 -- -- 62
2018-06-11 12:00:00 15.8 14 Oeste 21 Noroeste 0 -- -- 67
2018-06-11 11:00:00 14.3 14 Noroeste 26 Noroeste 0 -- -- 77
2018-06-11 10:00:00 13.2 20 Noroeste 26 Noroeste 0 -- -- 81
2018-06-11 09:00:00 11.5 15 Noroeste 23 Noroeste 0 -- -- 89
2018-06-11 08:00:00 10.9 13 Noroeste 19 Noroeste 0 -- -- 91
2018-06-11 07:00:00 10.6 8 Noroeste 18 Noroeste 0 -- -- 92
2018-06-11 06:00:00 10.8 13 Noroeste 19 Noroeste 0 -- -- 93
2018-06-11 05:00:00 10.6 9 Noroeste 14 Noroeste 0 -- -- 93
2018-06-11 04:00:00 10.9 9 Noroeste 13 Noroeste 0 -- -- 93
2018-06-11 03:00:00 11.4 9 Noroeste 12 Noroeste 0 -- -- 93
2018-06-11 02:00:00 11.7 8 Noroeste 12 Oeste 0 -- -- 92
2018-06-11 01:00:00 12.2 3 Oeste 8 Oeste 0 -- -- 90
2018-06-11 00:00:00 11.8 0 Calma 6 Norte 0 -- -- 91
2018-06-10 23:00:00 12 5 Norte 9 Nordeste 0 -- -- 90
2018-06-10 22:00:00 12.3 4 Nordeste 13 Nordeste 0 -- -- 88
2018-06-10 21:00:00 12.6 8 Nordeste 18 Nordeste 0 -- -- 84
2018-06-10 20:00:00 13.1 8 Nordeste 20 Noroeste 11.4 -- -- 88
2018-06-10 19:00:00 14.7 8 Norte 13 Norte 0 -- -- 80
2018-06-10 18:00:00 13.4 2 Sur 25 Sudoeste 2.4 -- -- 82
2018-06-10 17:00:00 15.7 14 Sur 23 Sur 0 -- -- 71
2018-06-10 16:00:00 16.3 15 Sudeste 25 Sudeste 0.2 -- -- 73
2018-06-10 15:00:00 15.4 4 Este 13 Este 0 -- -- 69
2018-06-10 14:00:00 13.7 3 Sudeste 10 Sudeste 0 -- -- 81
2018-06-10 13:00:00 11.9 8 Sur 24 Sudeste 0.4 -- -- 91
2018-06-10 12:00:00 13.4 6 Sudeste 17 Sudeste 0 -- -- 80
2018-06-10 11:00:00 12.5 11 Sur 20 Sudeste 0 -- -- 87
2018-06-10 10:00:00 11.4 10 Sur 19 Sur 0 -- -- 92
2018-06-10 09:00:00 10.9 11 Sudeste 17 Sudeste 0.2 -- -- 95
2018-06-10 08:00:00 10.5 8 Sudeste 16 Sudeste 0.2 -- -- 95
2018-06-10 07:00:00 10.3 10 Sudeste 17 Sudeste 0 -- -- 95
2018-06-10 06:00:00 10.2 8 Sudeste 13 Sudeste 0 -- -- 94
2018-06-10 05:00:00 9.9 5 Sudeste 20 Sur 0 -- -- 92
2018-06-10 04:00:00 10.2 9 Sur 15 Sur 0 -- -- 92
2018-06-10 03:00:00 10.5 9 Sudeste 18 Sur 0 -- -- 91
2018-06-10 02:00:00 10.5 10 Sudeste 16 Sur 0 -- -- 92
2018-06-10 01:00:00 10.4 10 Sur 16 Sur 0 -- -- 92
2018-06-10 00:00:00 10.3 9 Sur 15 Sur 0 -- -- 90
2018-06-09 23:00:00 10.2 8 Sur 13 Sur 0 -- -- 88
2018-06-09 22:00:00 11.3 8 Sur 23 Sur 0 -- -- 85
2018-06-09 21:00:00 13.3 18 Sur 35 Sudoeste 0 -- -- 74
2018-06-09 20:00:00 13.5 18 Sudoeste 30 Sudoeste 0 -- -- 72
2018-06-09 19:00:00 13 12 Sur 37 Sur 0.2 -- -- 77
2018-06-09 18:00:00 15.6 18 Sur 27 Sur 0 -- -- 63
2018-06-09 17:00:00 16.4 14 Sur 23 Sur 0 -- -- 56
2018-06-09 16:00:00 14.8 13 Sur 29 Sur 0 -- -- 64
2018-06-09 15:00:00 14.3 14 Sur 24 Sur 0 -- -- 66
2018-06-09 14:00:00 12.9 13 Sur 20 Sur 0 -- -- 71
2018-06-09 13:00:00 13.5 9 Sur 18 Sudeste 0 -- -- 69
2018-06-09 12:00:00 13.1 10 Sur 19 Sur 0 -- -- 72
2018-06-09 11:00:00 10.6 6 Sur 13 Sudoeste 0 -- -- 85
2018-06-09 10:00:00 8.7 5 Sudoeste 13 Sur 0 -- -- 93
2018-06-09 09:00:00 8.4 6 Sudeste 15 Sur 0 -- -- 94
2018-06-09 08:00:00 8.1 8 Sur 13 Sur 0 -- -- 96
2018-06-09 07:00:00 8.1 4 Sudeste 12 Sur 0 -- -- 96
2018-06-09 06:00:00 7.8 6 Sur 12 Sur 0 -- -- 95
2018-06-09 05:00:00 8.4 6 Sur 9 Sur 0 -- -- 94
2018-06-09 04:00:00 9 5 Sudeste 11 Sur 0 -- -- 93
2018-06-09 03:00:00 9.8 3 Sur 13 Sur 0 -- -- 92
2018-06-09 02:00:00 10.1 6 Sur 14 Sudoeste 0 -- -- 92
2018-06-09 01:00:00 10.3 10 Sur 16 Sudoeste 0 -- -- 93
2018-06-09 00:00:00 10.7 9 Sudoeste 18 Sur 0 -- -- 92
2018-06-08 23:00:00 10.8 10 Sur 15 Sudoeste 0.2 -- -- 93
2018-06-08 22:00:00 11.2 15 Sur 29 Sudoeste 0.2 -- -- 90
2018-06-08 21:00:00 12 23 Sudoeste 42 Sudoeste 0 -- -- 83
2018-06-08 20:00:00 14.8 19 Sur 33 Sur 0 -- -- 75
2018-06-08 19:00:00 15.4 19 Sudoeste 51 Sudoeste 0 -- -- 69
2018-06-08 18:00:00 17.2 26 Sur 39 Sudoeste 0 -- -- 68
2018-06-08 17:00:00 17.9 22 Sudoeste 35 Sudoeste 0 -- -- 70
2018-06-08 16:00:00 17.3 19 Sur 33 Sur 0 -- -- 76
2018-06-08 15:00:00 14.2 21 Sur 41 Sur 0.8 -- -- 92
2018-06-08 14:00:00 16.6 20 Sudeste 33 Sudeste 0.6 -- -- 83
2018-06-08 13:00:00 15.2 17 Sudeste 28 Sudeste 1 -- -- 88
2018-06-08 12:00:00 14.1 14 Sudeste 27 Sudeste 0.2 -- -- 93
2018-06-08 11:00:00 13.4 14 Sudeste 23 Sudeste 0.4 -- -- 96
2018-06-08 10:00:00 12.9 12 Sudeste 20 Sur 0 -- -- 96
2018-06-08 09:00:00 12.7 15 Sudeste 22 Sudeste 0 -- -- 96
2018-06-08 08:00:00 12.6 10 Sudeste 22 Sudeste 0.8 -- -- 97
2018-06-08 07:00:00 12.5 15 Sudeste 28 Sudeste 0.8 -- -- 97
2018-06-08 06:00:00 12.6 14 Sudeste 22 Sudeste 0.2 -- -- 97
2018-06-08 05:00:00 12.5 12 Sudeste 18 Sudeste 1.4 -- -- 97
2018-06-08 04:00:00 12.7 12 Sudeste 18 Sudeste 0 -- -- 96
2018-06-08 03:00:00 12.9 13 Sur 21 Sudeste 0.2 -- -- 96
2018-06-08 02:00:00 12.9 14 Sudeste 20 Sudeste 0 -- -- 96
2018-06-08 01:00:00 12.9 11 Sudeste 18 Sudeste 0.2 -- -- 96
2018-06-08 00:00:00 12.8 11 Sudeste 19 Sudeste 1.6 -- -- 96
2018-06-07 23:00:00 12.7 8 Sudeste 16 Sur 0 -- -- 95
2018-06-07 22:00:00 12.5 9 Sudeste 19 Sur 0.4 -- -- 95
2018-06-07 21:00:00 12.5 13 Sur 21 Sur 2 -- -- 94
2018-06-07 20:00:00 13 14 Sur 22 Sur 0.6 -- -- 91
2018-06-07 19:00:00 13.5 17 Sur 30 Sur 0.2 -- -- 87
2018-06-07 18:00:00 15.3 21 Sur 31 Sur 0 -- -- 77
2018-06-07 17:00:00 16 21 Sur 31 Sur 0 -- -- 77
2018-06-07 16:00:00 14.5 19 Sur 25 Sur 0.6 -- -- 85
2018-06-07 15:00:00 14.7 15 Sur 30 Sur 0 -- -- 80
2018-06-07 14:00:00 16.1 12 Sur 18 Sur 0 -- -- 73
2018-06-07 13:00:00 16.1 12 Sur 18 Sur 0 -- -- 72
2018-06-07 12:00:00 15.5 7 Sudeste 14 Sur 0 -- -- 74
2018-06-07 11:00:00 14.3 7 Sur 12 Sudoeste 0 -- -- 84
2018-06-07 10:00:00 13.6 6 Sudeste 10 Sudeste 0 -- -- 87
2018-06-07 09:00:00 13 5 Sudeste 9 Sudeste 0 -- -- 88
2018-06-07 08:00:00 11.6 4 Norte 6 Norte 0 -- -- 94
2018-06-07 07:00:00 10.6 3 Noroeste 6 Noroeste 0 -- -- 94
2018-06-07 06:00:00 10.3 4 Norte 9 Norte 0 -- -- 92
2018-06-07 05:00:00 10.9 5 Norte 11 Norte 0 -- -- 91
2018-06-07 04:00:00 11.1 9 Norte 14 Norte 0 -- -- 89
2018-06-07 03:00:00 11.5 8 Noroeste 15 Noroeste 0 -- -- 89
2018-06-07 02:00:00 12.1 11 Noroeste 23 Noroeste 0 -- -- 88
2018-06-07 01:00:00 12.6 11 Noroeste 22 Oeste 0 -- -- 86
2018-06-07 00:00:00 12.9 12 Oeste 19 Noroeste 0 -- -- 86
2018-06-06 23:00:00 14.2 14 Noroeste 23 Oeste 0 -- -- 79
2018-06-06 22:00:00 15.2 21 Noroeste 31 Noroeste 0 -- -- 74
2018-06-06 21:00:00 16.4 21 Noroeste 30 Noroeste 0 -- -- 71
2018-06-06 20:00:00 17.1 21 Noroeste 31 Noroeste 0 -- -- 69
2018-06-06 19:00:00 18 21 Noroeste 29 Oeste 0 -- -- 64
2018-06-06 18:00:00 18.5 5 Sudoeste 21 Oeste 0 -- -- 58
2018-06-06 17:00:00 19 5 Noroeste 21 Noroeste 0 -- -- 50
2018-06-06 16:00:00 18.6 6 Norte 22 Norte 0 -- -- 46
2018-06-06 15:00:00 18 11 Noroeste 19 Norte 0 -- -- 56
2018-06-06 14:00:00 17.4 17 Noroeste 24 Noroeste 0 -- -- 57
2018-06-06 13:00:00 16.5 12 Noroeste 23 Norte 0 -- -- 62
2018-06-06 12:00:00 16.1 17 Noroeste 24 Noroeste 0 -- -- 59
2018-06-06 11:00:00 14.9 15 Noroeste 22 Noroeste 0 -- -- 62
2018-06-06 10:00:00 13 8 Noroeste 15 Noroeste 0 -- -- 79
2018-06-06 09:00:00 11.2 11 Noroeste 24 Noroeste 0 -- -- 88
2018-06-06 08:00:00 9 8 Noroeste 13 Noroeste 0 -- -- 94
2018-06-06 07:00:00 8.3 6 Noroeste 10 Norte 0 -- -- 93
2018-06-06 06:00:00 8.8 6 Noroeste 10 Noroeste 0 -- -- 94
2018-06-06 05:00:00 7.9 7 Norte 12 Noroeste 0 -- -- 93
2018-06-06 04:00:00 8.2 9 Norte 13 Norte 0 -- -- 93
2018-06-06 03:00:00 8.3 5 Norte 15 Noroeste 0 -- -- 92
2018-06-06 02:00:00 8.7 10 Noroeste 15 Noroeste 0 -- -- 94
2018-06-06 01:00:00 8.9 7 Noroeste 10 Noroeste 0 -- -- 94
2018-06-06 00:00:00 9.5 5 Noroeste 6 Noroeste 0 -- -- 94
2018-06-05 23:00:00 9.9 2 Oeste 5 Oeste 0 -- -- 90
2018-06-05 22:00:00 10.9 4 Oeste 10 Oeste 0.2 -- -- 88
2018-06-05 21:00:00 12.1 6 Oeste 15 Oeste 0 -- -- 83
2018-06-05 20:00:00 11.4 11 Oeste 17 Noroeste 0 -- -- 86
2018-06-05 19:00:00 10.9 13 Noroeste 19 Oeste 0 -- -- 85
2018-06-05 18:00:00 10.8 9 Noroeste 16 Noroeste 1 -- -- 87
2018-06-05 17:00:00 9.6 9 Este 30 Norte 9.4 -- -- 89
2018-06-05 16:00:00 12.8 8 Este 13 Sudeste 0 -- -- 78
2018-06-05 15:00:00 12.5 9 Sudeste 17 Sudeste 0 -- -- 80
2018-06-05 14:00:00 10.8 12 Sudeste 18 Sudeste 1.2 -- -- 86
2018-06-05 13:00:00 10.5 11 Sudeste 17 Sudeste 0.2 -- -- 84
2018-06-05 12:00:00 10.7 8 Este 35 Oeste 2.4 -- -- 85
2018-06-05 11:00:00 13 5 Oeste 22 Oeste 0.2 -- -- 65
2018-06-05 10:00:00 12 15 Oeste 22 Oeste 0 -- -- 78
2018-06-05 09:00:00 10.3 14 Noroeste 20 Oeste 0 -- -- 84
2018-06-05 08:00:00 9.3 10 Noroeste 17 Oeste 0 -- -- 90
2018-06-05 07:00:00 8.8 11 Noroeste 16 Oeste 0 -- -- 90
2018-06-05 06:00:00 8.5 8 Oeste 11 Noroeste 0 -- -- 91
2018-06-05 05:00:00 8.8 5 Noroeste 10 Noroeste 0 -- -- 91
2018-06-05 04:00:00 8.8 8 Noroeste 12 Noroeste 0 -- -- 91
2018-06-05 03:00:00 8.9 5 Noroeste 18 Noroeste 0 -- -- 90
2018-06-05 02:00:00 9.4 12 Noroeste 19 Noroeste 0 -- -- 86
2018-06-05 01:00:00 9.2 13 Oeste 18 Oeste 0 -- -- 89
2018-06-05 00:00:00 9.4 10 Oeste 16 Oeste 0 -- -- 86
2018-06-04 23:00:00 9.9 10 Oeste 25 Oeste 0 -- -- 82
2018-06-04 22:00:00 10.6 17 Oeste 25 Oeste 0 -- -- 81
2018-06-04 21:00:00 11.3 17 Oeste 26 Oeste 0 -- -- 77
2018-06-04 20:00:00 12.3 17 Oeste 23 Sudoeste 0 -- -- 75
2018-06-04 19:00:00 11.8 17 Oeste 30 Oeste 0.2 -- -- 78
2018-06-04 18:00:00 13.4 8 Norte 21 Noroeste 0 -- -- 61
2018-06-04 17:00:00 11.8 17 Noroeste 26 Noroeste 0 -- -- 75
2018-06-04 16:00:00 10.1 15 Noroeste 29 Noroeste 2.2 -- -- 86
2018-06-04 15:00:00 10.4 18 Noroeste 24 Noroeste 0.8 -- -- 86
2018-06-04 14:00:00 12.2 3 Nordeste 13 Sudeste 0.6 -- -- 73
2018-06-04 13:00:00 12.1 4 Nordeste 19 Noroeste 0.4 -- -- 80
2018-06-04 12:00:00 12.9 4 Sudeste 19 Sudoeste 0.2 -- -- 76
2018-06-04 11:00:00 12.3 4 Sudoeste 22 Sur 0 -- -- 76
2018-06-04 10:00:00 12.6 9 Sur 18 Sudoeste 0 -- -- 75
2018-06-04 09:00:00 11.3 10 Sur 15 Sudoeste 0 -- -- 81
2018-06-04 08:00:00 8.7 8 Sudoeste 11 Sudoeste 0 -- -- 93
2018-06-04 07:00:00 9 5 Sur 11 Sudoeste 0 -- -- 91
2018-06-04 06:00:00 9.9 7 Sudoeste 10 Sudoeste 0 -- -- 88
2018-06-04 05:00:00 10.1 9 Oeste 16 Oeste 0 -- -- 84
2018-06-04 04:00:00 10.4 10 Oeste 16 Oeste 0 -- -- 83
2018-06-04 03:00:00 10.7 10 Oeste 22 Oeste 0 -- -- 80
2018-06-04 02:00:00 9.6 8 Oeste 14 Oeste 0 -- -- 86
2018-06-04 01:00:00 10.8 10 Oeste 16 Oeste 0 -- -- 81
2018-06-04 00:00:00 11.7 10 Oeste 18 Oeste 0 -- -- 78
2018-06-03 23:00:00 12.8 14 Oeste 27 Noroeste 0 -- -- 74
2018-06-03 22:00:00 14.8 18 Noroeste 26 Noroeste 0 -- -- 69
2018-06-03 21:00:00 16 12 Noroeste 37 Oeste 0 -- -- 68
2018-06-03 20:00:00 16.8 14 Noroeste 27 Noroeste 0 -- -- 65
2018-06-03 19:00:00 18 7 Noroeste 38 Sur 0 -- -- 61
2018-06-03 18:00:00 19 27 Sur 39 Sudoeste 0 -- -- 53
2018-06-03 17:00:00 19.6 26 Sudoeste 45 Sur 0 -- -- 55
2018-06-03 16:00:00 19.1 28 Sur 42 Sudoeste 0 -- -- 58
2018-06-03 15:00:00 19.5 27 Sur 44 Sudoeste 0 -- -- 58
2018-06-03 14:00:00 19.9 22 Sur 33 Sur 0 -- -- 60
2018-06-03 13:00:00 19.2 16 Sur 29 Sur 0 -- -- 61
2018-06-03 12:00:00 18 9 Sur 28 Sur 0 -- -- 61
2018-06-03 11:00:00 16.6 6 Sudeste 12 Este 0 -- -- 71
2018-06-03 10:00:00 14.9 3 Nordeste 11 Norte 0 -- -- 81
2018-06-03 09:00:00 14.3 5 Nordeste 9 Nordeste 0 -- -- 85
2018-06-03 08:00:00 12.2 6 Norte 10 Norte 0 -- -- 92
2018-06-03 07:00:00 11.8 6 Noroeste 12 Noroeste 0 -- -- 92
2018-06-03 06:00:00 12.1 8 Noroeste 13 Oeste 0 -- -- 92
2018-06-03 05:00:00 12.4 6 Nordeste 17 Noroeste 0 -- -- 90
2018-06-03 04:00:00 13.3 9 Noroeste 13 Noroeste 0 -- -- 91
2018-06-03 03:00:00 13.5 8 Noroeste 16 Noroeste 0 -- -- 91
2018-06-03 02:00:00 14 12 Noroeste 23 Noroeste 0 -- -- 88
2018-06-03 01:00:00 14.9 14 Noroeste 21 Noroeste 0 -- -- 83
2018-06-03 00:00:00 15.2 10 Noroeste 15 Noroeste 0 -- -- 82
2018-06-02 23:00:00 16 11 Noroeste 18 Noroeste 0 -- -- 79
2018-06-02 22:00:00 16.8 15 Noroeste 28 Noroeste 0 -- -- 74
2018-06-02 21:00:00 20 4 Sur 14 Sur 0 -- -- 59
2018-06-02 20:00:00 21.5 9 Sur 18 Sur 0 -- -- 50
2018-06-02 19:00:00 21.8 6 Sur 18 Este 0 -- -- 45
2018-06-02 18:00:00 21.7 10 Sur 29 Sudoeste 0 -- -- 46
2018-06-02 17:00:00 21.4 12 Sur 22 Sur 0 -- -- 48
2018-06-02 16:00:00 21.1 8 Sudeste 18 Sur 0 -- -- 53
2018-06-02 15:00:00 20.5 9 Sur 20 Sur 0 -- -- 56
2018-06-02 14:00:00 19.7 5 Sur 18 Sudeste 0 -- -- 56
2018-06-02 13:00:00 18.8 7 Sudeste 20 Este 0 -- -- 58
2018-06-02 12:00:00 17.4 12 Sudeste 20 Sudeste 0 -- -- 70
2018-06-02 11:00:00 17.4 9 Este 16 Este 0 -- -- 69
2018-06-02 10:00:00 16.3 9 Este 19 Nordeste 0 -- -- 72
2018-06-02 09:00:00 14.4 9 Este 15 Este 0 -- -- 79
2018-06-02 08:00:00 11.4 3 Nordeste 12 Nordeste 0 -- -- 88
2018-06-02 07:00:00 11.2 8 Nordeste 12 Nordeste 0 -- -- 87
2018-06-02 06:00:00 11.5 4 Norte 11 Norte 0 -- -- 90
2018-06-02 05:00:00 11 9 Norte 17 Norte 0 -- -- 90
2018-06-02 04:00:00 10.7 14 Norte 21 Noroeste 0 -- -- 90
2018-06-02 03:00:00 10.5 14 Noroeste 18 Norte 0 -- -- 90
2018-06-02 02:00:00 11 10 Noroeste 14 Noroeste 0 -- -- 89
2018-06-02 01:00:00 11.5 9 Norte 14 Noroeste 0 -- -- 89
2018-06-02 00:00:00 12.8 8 Noroeste 13 Norte 0 -- -- 86
2018-06-01 23:00:00 13.2 11 Noroeste 20 Noroeste 0 -- -- 83
2018-06-01 22:00:00 13.5 17 Noroeste 28 Noroeste 0 -- -- 84
2018-06-01 21:00:00 14.5 22 Noroeste 35 Noroeste 0 -- -- 81
2018-06-01 20:00:00 15.3 25 Noroeste 35 Noroeste 0 -- -- 77
2018-06-01 19:00:00 16 22 Noroeste 29 Oeste 0 -- -- 73
2018-06-01 18:00:00 14.9 21 Noroeste 33 Oeste 0 -- -- 81
2018-06-01 17:00:00 16.1 27 Sudoeste 39 Sudoeste 0 -- -- 77
2018-06-01 16:00:00 17.8 8 Noroeste 14 Noroeste 0.2 -- -- 66
2018-06-01 15:00:00 17.6 8 Sudoeste 15 Sudoeste 0 -- -- 69
2018-06-01 14:00:00 17 3 Noroeste 14 Norte 0 -- -- 67
2018-06-01 13:00:00 15.1 5 Noroeste 12 Noroeste 0 -- -- 78
2018-06-01 12:00:00 13.6 4 Noroeste 9 Noroeste 0.2 -- -- 82
2018-06-01 11:00:00 12.5 6 Norte 8 Norte 0 -- -- 82
2018-06-01 10:00:00 12.3 6 Este 16 Este 0 -- -- 84
2018-06-01 09:00:00 11.3 8 Nordeste 15 Norte 0 -- -- 92
2018-06-01 08:00:00 10.6 9 Noroeste 12 Noroeste 0 -- -- 95
2018-06-01 07:00:00 10.5 7 Noroeste 11 Norte 1.2 -- -- 95
2018-06-01 06:00:00 10.6 3 Noroeste 7 Oeste 0 -- -- 95
2018-06-01 05:00:00 10.4 4 Norte 10 Norte 0 -- -- 94
2018-06-01 04:00:00 10.3 8 Oeste 12 Norte 0 -- -- 93
2018-06-01 03:00:00 10.8 6 Norte 15 Norte 0 -- -- 92
2018-06-01 02:00:00 11.5 12 Norte 18 Noroeste 0 -- -- 89
2018-06-01 01:00:00 12 13 Noroeste 21 Noroeste 0 -- -- 88
2018-06-01 00:00:00 12.7 12 Noroeste 23 Noroeste 0 -- -- 88
2018-05-31 23:00:00 13 0 Calma 6 Este 0 -- -- 87
2018-05-31 22:00:00 14 0 Calma 6 Este 0 -- -- 81
2018-05-31 21:00:00 15.2 5 Sudeste 9 Sudeste 0 -- -- 70
2018-05-31 20:00:00 15.8 4 Sur 9 Sudeste 0 -- -- 68
2018-05-31 19:00:00 15.5 0 Calma 11 Noroeste 0 -- -- 67
2018-05-31 18:00:00 14.3 6 Noroeste 14 Noroeste 0 -- -- 74
2018-05-31 17:00:00 13.3 10 Noroeste 18 Oeste 0 -- -- 78
2018-05-31 16:00:00 13.9 9 Sur 20 Sur 0 -- -- 75
2018-05-31 15:00:00 14.1 12 Sur 22 Sur 0 -- -- 75
2018-05-31 14:00:00 13.8 5 Sudoeste 13 Sur 0 -- -- 76
2018-05-31 13:00:00 12.7 9 Sudoeste 16 Sur 0 -- -- 83
2018-05-31 12:00:00 12.4 10 Sur 16 Sur 0 -- -- 84
2018-05-31 11:00:00 11.5 12 Sudeste 15 Sur 0 -- -- 88
2018-05-31 10:00:00 11.2 8 Sur 11 Sur 0 -- -- 89
2018-05-31 09:00:00 11.2 5 Oeste 10 Noroeste 0 -- -- 87
2018-05-31 08:00:00 10.1 4 Noroeste 10 Oeste 0 -- -- 93
2018-05-31 07:00:00 8.7 4 Oeste 6 Oeste 0 -- -- 95
2018-05-31 06:00:00 8.5 5 Sudoeste 9 Sudoeste 0 -- -- 93
2018-05-31 05:00:00 9.6 5 Oeste 18 Oeste 0 -- -- 89
2018-05-31 04:00:00 10.9 11 Oeste 16 Oeste 0 -- -- 86
2018-05-31 03:00:00 11.1 9 Oeste 18 Oeste 0 -- -- 86
2018-05-31 02:00:00 11.1 12 Oeste 19 Oeste 0 -- -- 86
2018-05-31 01:00:00 11.8 16 Oeste 26 Noroeste 0 -- -- 84
2018-05-31 00:00:00 12.2 17 Oeste 30 Oeste 0 -- -- 83
2018-05-30 23:00:00 12.5 22 Noroeste 35 Noroeste 0 -- -- 82
2018-05-30 22:00:00 12.7 24 Noroeste 46 Oeste 0 -- -- 83
2018-05-30 21:00:00 13.6 32 Noroeste 53 Noroeste 0 -- -- 78
2018-05-30 20:00:00 14.5 24 Oeste 36 Oeste 0 -- -- 75
2018-05-30 19:00:00 16 26 Oeste 36 Oeste 0.2 -- -- 68
2018-05-30 18:00:00 16.5 23 Noroeste 33 Noroeste 0 -- -- 67
2018-05-30 17:00:00 17.2 21 Oeste 31 Oeste 0 -- -- 70
2018-05-30 16:00:00 15.1 10 Sudoeste 24 Sudoeste 0 -- -- 83
2018-05-30 15:00:00 14.6 14 Sur 25 Sudoeste 0.6 -- -- 87
2018-05-30 14:00:00 16.7 14 Sur 24 Sur 0 -- -- 75
2018-05-30 13:00:00 16.7 9 Sur 21 Sur 0 -- -- 69
2018-05-30 12:00:00 16 9 Oeste 22 Oeste 0 -- -- 74
2018-05-30 11:00:00 15.1 13 Noroeste 20 Noroeste 0 -- -- 74
2018-05-30 10:00:00 14.4 15 Noroeste 22 Noroeste 0 -- -- 79
2018-05-30 09:00:00 13 18 Noroeste 25 Noroeste 0 -- -- 87
2018-05-30 08:00:00 11 5 Noroeste 8 Noroeste 0 -- -- 94
2018-05-30 07:00:00 11 4 Norte 10 Norte 0 -- -- 93
2018-05-30 06:00:00 11.2 5 Noroeste 9 Norte 0 -- -- 92
2018-05-30 05:00:00 11.7 6 Noroeste 10 Norte 0 -- -- 92
2018-05-30 04:00:00 12.4 6 Norte 10 Norte 0 -- -- 91
2018-05-30 03:00:00 12.9 8 Norte 11 Noroeste 0 -- -- 87
2018-05-30 02:00:00 13.3 7 Norte 15 Norte 0 -- -- 85
2018-05-30 01:00:00 13.7 4 Nordeste 10 Norte 0 -- -- 87
2018-05-30 00:00:00 14.1 8 Norte 13 Nordeste 0 -- -- 81
2018-05-29 23:00:00 14.5 9 Noroeste 13 Norte 0 -- -- 82
2018-05-29 22:00:00 14 6 Oeste 18 Oeste 0.2 -- -- 83
2018-05-29 21:00:00 15.2 14 Oeste 25 Norte 0 -- -- 74
2018-05-29 20:00:00 17.4 18 Norte 28 Norte 0 -- -- 69
2018-05-29 19:00:00 19.4 5 Sudoeste 18 Sur 0 -- -- 49
2018-05-29 18:00:00 19.8 6 Sur 15 Sur 0 -- -- 47
2018-05-29 17:00:00 19.6 4 Sudoeste 10 Sur 0 -- -- 57
2018-05-29 16:00:00 18.9 5 Sudoeste 16 Sur 0 -- -- 60
2018-05-29 15:00:00 17.7 4 Sudoeste 14 Sur 0 -- -- 65
2018-05-29 14:00:00 17 5 Sur 14 Sudoeste 0 -- -- 69
2018-05-29 13:00:00 14.7 3 Sudoeste 10 Este 0 -- -- 79
2018-05-29 12:00:00 13.8 3 Norte 12 Este 0 -- -- 90
2018-05-29 11:00:00 12.1 9 Nordeste 12 Este 0 -- -- 95
2018-05-29 10:00:00 12.1 5 Nordeste 13 Este 0 -- -- 94
2018-05-29 09:00:00 11.6 8 Nordeste 14 Este 0 -- -- 95
2018-05-29 08:00:00 11.6 7 Este 9 Nordeste 0.2 -- -- 95
2018-05-29 07:00:00 11.7 2 Este 9 Este 0.6 -- -- 96
2018-05-29 06:00:00 11.7 0 Calma 8 Nordeste 0 -- -- 95
2018-05-29 05:00:00 11.6 4 Nordeste 11 Este 0.4 -- -- 95
2018-05-29 04:00:00 11.7 6 Este 16 Este 0.2 -- -- 95
2018-05-29 03:00:00 11.9 9 Este 13 Este 0 -- -- 95
2018-05-29 02:00:00 12 3 Nordeste 6 Noroeste 0.4 -- -- 95
2018-05-29 01:00:00 11.9 6 Noroeste 9 Noroeste 0 -- -- 95
2018-05-29 00:00:00 11.8 4 Oeste 10 Noroeste 6.4 -- -- 95
2018-05-28 23:00:00 12.1 9 Noroeste 13 Noroeste 7.6 -- -- 95
2018-05-28 22:00:00 12.3 8 Noroeste 17 Noroeste 5.8 -- -- 95
2018-05-28 21:00:00 13 6 Oeste 10 Oeste 7.2 -- -- 94
2018-05-28 20:00:00 13.6 6 Oeste 14 Oeste 3.4 -- -- 92
2018-05-28 19:00:00 13.7 11 Oeste 20 Sudoeste 0.6 -- -- 91
2018-05-28 18:00:00 14.1 15 Sudoeste 22 Sudoeste 0.2 -- -- 88
2018-05-28 17:00:00 15.3 13 Sudoeste 18 Sudoeste 0.2 -- -- 84
2018-05-28 16:00:00 16.3 7 Sudoeste 13 Sur 0 -- -- 73
2018-05-28 15:00:00 16.4 5 Sudoeste 12 Sudoeste 0 -- -- 72
2018-05-28 14:00:00 15.2 3 Sudoeste 11 Sudoeste 0 -- -- 74
2018-05-28 13:00:00 15 3 Noroeste 8 Norte 0 -- -- 75
2018-05-28 12:00:00 13.5 4 Nordeste 9 Nordeste 0 -- -- 83
2018-05-28 11:00:00 12.7 2 Norte 6 Norte 0 -- -- 90
2018-05-28 10:00:00 12.2 5 Norte 13 Norte 0 -- -- 90
2018-05-28 09:00:00 11.9 11 Noroeste 14 Noroeste 0 -- -- 90
2018-05-28 08:00:00 11.4 8 Noroeste 13 Noroeste 0 -- -- 93
2018-05-28 07:00:00 11.6 10 Noroeste 14 Norte 0 -- -- 95
2018-05-28 06:00:00 11.6 8 Norte 14 Noroeste 0 -- -- 95
2018-05-28 05:00:00 11.7 10 Noroeste 14 Noroeste 0 -- -- 94
2018-05-28 04:00:00 12 6 Norte 9 Norte 0.8 -- -- 94
2018-05-28 03:00:00 12 3 Norte 8 Norte 4.6 -- -- 93
2018-05-28 02:00:00 12.1 7 Norte 9 Norte 3.8 -- -- 92
2018-05-28 01:00:00 12.7 4 Nordeste 10 Noroeste 3.8 -- -- 88
2018-05-28 00:00:00 13.3 9 Noroeste 13 Norte 0 -- -- 87
2018-05-27 23:00:00 13.5 10 Norte 18 Norte 0 -- -- 85
2018-05-27 22:00:00 13.8 14 Noroeste 29 Noroeste 0 -- -- 84
2018-05-27 21:00:00 15.6 10 Noroeste 16 Noroeste 0 -- -- 78
2018-05-27 20:00:00 16.6 17 Noroeste 26 Norte 0 -- -- 73
2018-05-27 19:00:00 17 3 Oeste 14 Noroeste 0 -- -- 63
2018-05-27 18:00:00 16.1 8 Noroeste 17 Noroeste 0.4 -- -- 72
2018-05-27 17:00:00 14 15 Noroeste 32 Oeste 1 -- -- 84
2018-05-27 16:00:00 14.6 18 Oeste 37 Noroeste 0 -- -- 79
2018-05-27 15:00:00 18.2 23 Oeste 37 Noroeste 0 -- -- 61
2018-05-27 14:00:00 19 8 Sur 23 Sur 0 -- -- 64
2018-05-27 13:00:00 17.7 9 Sur 17 Sur 0 -- -- 67
2018-05-27 12:00:00 16.3 4 Sudeste 9 Sur 0 -- -- 74
2018-05-27 11:00:00 15 3 Sudeste 6 Sur 0 -- -- 78
2018-05-27 10:00:00 13.2 0 Calma 5 Noroeste 0 -- -- 84
2018-05-27 09:00:00 11.9 2 Norte 4 Norte 0 -- -- 91
2018-05-27 08:00:00 10.9 2 Norte 4 Norte 0 -- -- 95
2018-05-27 07:00:00 10.5 2 Nordeste 6 Norte 0 -- -- 95
2018-05-27 06:00:00 10.8 3 Nordeste 6 Noroeste 0 -- -- 94
2018-05-27 05:00:00 10.6 4 Norte 9 Norte 0 -- -- 94
2018-05-27 04:00:00 10.5 4 Noroeste 8 Nordeste 0 -- -- 94
2018-05-27 03:00:00 10.6 4 Nordeste 8 Nordeste 0 -- -- 94
2018-05-27 02:00:00 10.9 7 Nordeste 9 Nordeste 0 -- -- 93
2018-05-27 01:00:00 12.2 3 Nordeste 7 Norte 0 -- -- 90
2018-05-27 00:00:00 12.9 4 Noroeste 5 Norte 0 -- -- 91
2018-05-26 23:00:00 12.7 2 Sudeste 15 Sudeste 0 -- -- 87
2018-05-26 22:00:00 14 9 Sudeste 15 Sudeste 0 -- -- 81
2018-05-26 21:00:00 16 8 Este 14 Este 0 -- -- 72
2018-05-26 20:00:00 16.5 3 Nordeste 13 Noroeste 0 -- -- 62
2018-05-26 19:00:00 17.4 9 Noroeste 17 Noroeste 0 -- -- 57
2018-05-26 18:00:00 16.4 4 Noroeste 17 Noroeste 0.2 -- -- 68
2018-05-26 17:00:00 13.9 13 Noroeste 24 Noroeste 1.8 -- -- 81
2018-05-26 16:00:00 14.1 18 Oeste 30 Oeste 0.2 -- -- 78
2018-05-26 15:00:00 16.8 8 Sudoeste 18 Sudoeste 0 -- -- 63
2018-05-26 14:00:00 15.9 6 Oeste 13 Oeste 0 -- -- 70
2018-05-26 13:00:00 15 5 Sudoeste 10 Oeste 0 -- -- 79
2018-05-26 12:00:00 13.3 3 Sudoeste 8 Sur 0 -- -- 84
2018-05-26 11:00:00 12.3 6 Sudoeste 9 Sur 0 -- -- 90
2018-05-26 10:00:00 12 3 Sur 5 Sur 0 -- -- 93
2018-05-26 09:00:00 11.3 0 Calma 4 Norte 0 -- -- 95
2018-05-26 08:00:00 11 2 Norte 4 Norte 0 -- -- 96
2018-05-26 07:00:00 10.8 0 Calma 7 Noroeste 0 -- -- 96
2018-05-26 06:00:00 10.7 5 Noroeste 6 Norte 0 -- -- 97
2018-05-26 05:00:00 10.7 3 Norte 7 Noroeste 0 -- -- 96
2018-05-26 04:00:00 10.7 6 Noroeste 9 Noroeste 0 -- -- 96
2018-05-26 03:00:00 10.4 2 Nordeste 5 Sudoeste 0 -- -- 96
2018-05-26 02:00:00 10.7 2 Noroeste 5 Noroeste 0 -- -- 95
2018-05-26 01:00:00 11 3 Noroeste 5 Norte 0 -- -- 94
2018-05-26 00:00:00 11.4 4 Norte 6 Norte 0 -- -- 93
2018-05-25 23:00:00 11.7 6 Norte 9 Nordeste 0 -- -- 92
2018-05-25 22:00:00 12.4 3 Nordeste 12 Nordeste 0 -- -- 91
2018-05-25 21:00:00 12.9 6 Nordeste 14 Nordeste 0 -- -- 90
2018-05-25 20:00:00 13.6 10 Nordeste 14 Nordeste 0 -- -- 88
2018-05-25 19:00:00 13.2 7 Nordeste 9 Nordeste 0 -- -- 88
2018-05-25 18:00:00 12.5 8 Este 24 Este 2.6 -- -- 89
2018-05-25 17:00:00 14.7 7 Nordeste 22 Norte 0 -- -- 77
2018-05-25 16:00:00 13.9 14 Norte 20 Este 1 -- -- 87
2018-05-25 15:00:00 13.9 13 Este 22 Nordeste 0 -- -- 86
2018-05-25 14:00:00 13.9 14 Nordeste 21 Este 0 -- -- 87
2018-05-25 13:00:00 12.9 12 Este 34 Este 0.8 -- -- 94
2018-05-25 12:00:00 12.5 17 Este 32 Este 7.6 -- -- 94
2018-05-25 11:00:00 11.9 22 Este 29 Este 2.2 -- -- 93
2018-05-25 10:00:00 13.3 18 Este 27 Este 0 -- -- 84
2018-05-25 09:00:00 12.6 7 Nordeste 14 Nordeste 0 -- -- 89
2018-05-25 08:00:00 12.1 8 Nordeste 15 Nordeste 0 -- -- 90
2018-05-25 07:00:00 11.2 9 Norte 19 Norte 0 -- -- 92
2018-05-25 06:00:00 11.5 13 Norte 16 Norte 0 -- -- 94
2018-05-25 05:00:00 11.7 6 Nordeste 12 Nordeste 0 -- -- 93
2018-05-25 04:00:00 12 3 Noroeste 24 Norte 0 -- -- 91
2018-05-25 03:00:00 12.4 18 Noroeste 23 Noroeste 0.4 -- -- 92
2018-05-25 02:00:00 12.4 12 Sur 57 Norte 1.6 -- -- 88
2018-05-25 01:00:00 12.6 28 Nordeste 41 Nordeste 2.6 -- -- 92
2018-05-25 00:00:00 14 8 Nordeste 21 Sudoeste 8.4 -- -- 84
2018-05-24 23:00:00 15.9 12 Nordeste 22 Norte 0 -- -- 68
2018-05-24 22:00:00 16.7 15 Norte 32 Noroeste 0 -- -- 64
2018-05-24 21:00:00 17.7 21 Norte 35 Noroeste 0 -- -- 59
2018-05-24 20:00:00 17.7 11 Norte 21 Noroeste 0 -- -- 61
2018-05-24 19:00:00 17.6 18 Noroeste 28 Noroeste 0 -- -- 59
2018-05-24 18:00:00 16.8 18 Oeste 29 Oeste 0 -- -- 65
2018-05-24 17:00:00 18.1 19 Sudoeste 33 Sudoeste 0 -- -- 67
2018-05-24 16:00:00 20.4 20 Sur 33 Sur 0 -- -- 58
2018-05-24 15:00:00 21.2 10 Sudeste 16 Sudeste 0 -- -- 51
2018-05-24 14:00:00 20.7 8 Nordeste 14 Nordeste 0 -- -- 53
2018-05-24 13:00:00 19.8 6 Este 21 Nordeste 0 -- -- 55
2018-05-24 12:00:00 18.1 6 Nordeste 14 Este 0 -- -- 62
2018-05-24 11:00:00 17.1 7 Este 15 Nordeste 0 -- -- 67
2018-05-24 10:00:00 15.4 5 Nordeste 9 Nordeste 0 -- -- 74
2018-05-24 09:00:00 12.4 4 Norte 10 Norte 0 -- -- 87
2018-05-24 08:00:00 10.2 8 Norte 11 Norte 0 -- -- 93
2018-05-24 07:00:00 8.3 6 Norte 12 Noroeste 0 -- -- 94
2018-05-24 06:00:00 9 9 Norte 14 Norte 0 -- -- 94
2018-05-24 05:00:00 9.6 8 Noroeste 11 Noroeste 0 -- -- 94
2018-05-24 04:00:00 10.3 6 Noroeste 8 Noroeste 0 -- -- 93
2018-05-24 03:00:00 10.9 4 Norte 10 Noroeste 0 -- -- 91
2018-05-24 02:00:00 11.8 8 Noroeste 12 Oeste 0 -- -- 90
2018-05-24 01:00:00 12.9 6 Nordeste 21 Nordeste 0 -- -- 86
2018-05-24 00:00:00 14.2 11 Nordeste 19 Nordeste 0.2 -- -- 84
2018-05-23 23:00:00 15.1 12 Este 28 Sudeste 0 -- -- 80
2018-05-23 22:00:00 16 9 Este 14 Este 0 -- -- 79
2018-05-23 21:00:00 17.3 11 Norte 22 Norte 0 -- -- 68
2018-05-23 20:00:00 17.6 8 Nordeste 22 Norte 0 -- -- 72
2018-05-23 19:00:00 18.7 10 Nordeste 30 Nordeste 0 -- -- 67
2018-05-23 18:00:00 16.7 23 Norte 37 Norte 2.2 -- -- 75
2018-05-23 17:00:00 21.1 9 Oeste 30 Norte 0 -- -- 49
2018-05-23 16:00:00 22.6 12 Sur 22 Sudeste 0 -- -- 42
2018-05-23 15:00:00 22.6 9 Sudoeste 20 Sudoeste 0 -- -- 42
2018-05-23 14:00:00 21.5 6 Sudeste 15 Sur 0 -- -- 45
2018-05-23 13:00:00 20.6 7 Sudeste 20 Sudeste 0 -- -- 47
2018-05-23 12:00:00 19.5 6 Este 12 Este 0 -- -- 48
2018-05-23 11:00:00 18.6 6 Este 14 Nordeste 0 -- -- 49
2018-05-23 10:00:00 17 6 Este 12 Este 0 -- -- 53
2018-05-23 09:00:00 15.6 2 Nordeste 7 Norte 0 -- -- 56
2018-05-23 08:00:00 11.8 4 Norte 7 Noroeste 0 -- -- 78
2018-05-23 07:00:00 10.8 5 Noroeste 6 Noroeste 0 -- -- 78
2018-05-23 06:00:00 11.8 5 Noroeste 9 Norte 0 -- -- 74
2018-05-23 05:00:00 12.2 8 Norte 13 Norte 0 -- -- 68
2018-05-23 04:00:00 12.5 7 Norte 12 Nordeste 0 -- -- 65
2018-05-23 03:00:00 13.5 7 Nordeste 13 Este 0 -- -- 68
2018-05-23 02:00:00 14.1 10 Este 19 Este 0 -- -- 64
2018-05-23 01:00:00 16 15 Este 31 Nordeste 0 -- -- 55
2018-05-23 00:00:00 17.8 19 Nordeste 29 Nordeste 0 -- -- 47
2018-05-22 23:00:00 18.6 10 Norte 17 Noroeste 0 -- -- 54
2018-05-22 22:00:00 19.7 12 Noroeste 18 Oeste 0 -- -- 46
2018-05-22 21:00:00 20.5 13 Noroeste 18 Oeste 0 -- -- 43
2018-05-22 20:00:00 21.2 13 Oeste 27 Oeste 0 -- -- 43
2018-05-22 19:00:00 22.4 22 Oeste 30 Oeste 0 -- -- 36
2018-05-22 18:00:00 22.8 17 Sudoeste 31 Sur 0 -- -- 41
2018-05-22 17:00:00 23.9 7 Oeste 23 Sudoeste 0 -- -- 30
2018-05-22 16:00:00 24.2 4 Oeste 19 Sur 0 -- -- 32
2018-05-22 15:00:00 23.2 10 Este 17 Este 0 -- -- 34
2018-05-22 14:00:00 21.9 6 Nordeste 14 Este 0 -- -- 39
2018-05-22 13:00:00 20.1 4 Nordeste 12 Nordeste 0 -- -- 48
2018-05-22 12:00:00 18.8 4 Este 19 Este 0 -- -- 55
2018-05-22 11:00:00 17.3 8 Este 18 Este 0 -- -- 60
2018-05-22 10:00:00 15.7 10 Este 16 Nordeste 0 -- -- 67
2018-05-22 09:00:00 14.3 8 Nordeste 13 Nordeste 0 -- -- 70
2018-05-22 08:00:00 10.5 7 Norte 10 Norte 0 -- -- 83
2018-05-22 07:00:00 9.4 7 Norte 10 Norte 0 -- -- 86
2018-05-22 06:00:00 11.5 5 Norte 8 Norte 0 -- -- 80
2018-05-22 05:00:00 12.9 0 Calma 8 Norte 0 -- -- 78
2018-05-22 04:00:00 13.2 7 Norte 9 Nordeste 0 -- -- 78
2018-05-22 03:00:00 12.7 6 Nordeste 12 Nordeste 0 -- -- 80
2018-05-22 02:00:00 13.4 7 Nordeste 15 Este 0 -- -- 76
2018-05-22 01:00:00 14.6 10 Este 13 Nordeste 0 -- -- 73
2018-05-22 00:00:00 15.3 5 Nordeste 13 Norte 0 -- -- 68